Time;durP1;ratioP1;P1;durP2;ratioP2;P2;SDS_P1;SDS_P2;PMS_P1;PMS_P2;Temp;Humidity;BMP_temperature;BMP_pressure;BME280_temperature;BME280_humidity;BME280_pressure;Samples;Min_cycle;Max_cycle;Signal;HPM_P1;HPM_P2
2021/05/22 00:01:21;;;;;;;1.33;0.97;;;;;;;12.47;100.00;100023.52;1768390;80;21653;-67
2021/05/22 00:03:49;;;;;;;2.07;1.10;;;;;;;12.48;100.00;100016.47;1768476;79;21676;-74
2021/05/22 00:06:16;;;;;;;1.90;1.10;;;;;;;12.50;100.00;100013.97;1770370;80;21426;-74
2021/05/22 00:08:45;;;;;;;1.90;1.30;;;;;;;12.51;100.00;100004.31;1771480;80;21645;-75
2021/05/22 00:11:11;;;;;;;2.23;1.10;;;;;;;12.49;100.00;100003.19;1769685;80;22022;-69
2021/05/22 00:13:39;;;;;;;2.73;1.30;;;;;;;12.44;100.00;99999.07;1769968;79;22189;-73
2021/05/22 00:16:05;;;;;;;5.70;1.30;;;;;;;12.33;100.00;100008.31;1768644;80;21605;-74
2021/05/22 00:18:34;;;;;;;2.60;1.47;;;;;;;12.33;100.00;100008.31;1765474;79;21589;-72
2021/05/22 00:21:01;;;;;;;2.07;1.40;;;;;;;12.26;100.00;100012.73;1768916;80;23061;-62
2021/05/22 00:23:28;;;;;;;2.93;1.23;;;;;;;12.21;100.00;100018.27;1738764;80;21350;-76
2021/05/22 00:25:55;;;;;;;1.97;1.27;;;;;;;12.09;100.00;100013.63;1769236;79;22221;-74
2021/05/22 00:28:21;;;;;;;3.73;1.40;;;;;;;12.00;100.00;100046.14;1762944;79;22052;-75
2021/05/22 00:30:48;;;;;;;2.20;1.30;;;;;;;12.00;100.00;100046.14;1782259;78;21621;-73
2021/05/22 00:33:14;;;;;;;2.13;1.50;;;;;;;11.92;100.00;100043.21;1778900;78;21555;-75
2021/05/22 00:35:43;;;;;;;2.10;1.20;;;;;;;11.79;100.00;100039.23;1749417;80;22045;-74
2021/05/22 00:38:10;;;;;;;1.90;1.10;;;;;;;11.79;100.00;100039.23;1767757;80;21500;-73
2021/05/22 00:40:37;;;;;;;2.83;1.33;;;;;;;11.70;100.00;100027.34;1780220;78;21167;-71
2021/05/22 00:43:04;;;;;;;2.00;1.40;;;;;;;11.54;100.00;100012.02;1777946;78;21286;-65
2021/05/22 00:45:31;;;;;;;3.00;1.43;;;;;;;11.49;100.00;100017.03;1782033;78;21439;-76
2021/05/22 00:47:58;;;;;;;3.63;1.43;;;;;;;11.49;100.00;100017.03;1745067;80;21273;-75
2021/05/22 00:50:31;;;;;;;1.97;1.47;;;;;;;11.43;100.00;100007.66;1750591;80;21246;-71
2021/05/22 00:52:58;;;;;;;2.20;1.40;;;;;;;11.36;100.00;100012.04;1741636;80;21288;-63
2021/05/22 00:55:24;;;;;;;3.73;1.70;;;;;;;11.36;100.00;100012.04;1771355;79;21415;-76
2021/05/22 00:57:51;;;;;;;3.87;1.60;;;;;;;11.33;100.00;100010.34;1768636;80;22692;-76
2021/05/22 01:00:20;;;;;;;3.03;1.63;;;;;;;11.29;100.00;100015.14;1762152;79;21294;-76
2021/05/22 01:02:47;;;;;;;2.50;1.53;;;;;;;11.26;100.00;100020.74;1766717;80;21807;-63
2021/05/22 01:05:14;;;;;;;2.87;1.93;;;;;;;11.22;100.00;100013.50;1756979;79;21827;-64
2021/05/22 01:07:43;;;;;;;2.63;1.80;;;;;;;11.18;100.00;100013.87;1768337;80;22038;-75
2021/05/22 01:10:10;;;;;;;2.87;1.90;;;;;;;11.16;100.00;100012.45;1767186;80;21315;-75
2021/05/22 01:12:41;;;;;;;2.87;1.70;;;;;;;11.14;100.00;100012.66;1748263;80;21285;-75
2021/05/22 01:15:13;;;;;;;1.62;1.10;;;;;;;11.14;100.00;100009.25;1771661;80;21126;-74
2021/05/22 01:17:45;;;;;;;2.07;1.40;;;;;;;11.16;100.00;100004.62;1747609;80;21118;-73
2021/05/22 01:20:37;;;;;;;2.77;2.07;;;;;;;11.20;100.00;100018.39;1778611;78;21249;-73
2021/05/22 01:23:09;;;;;;;2.83;1.63;;;;;;;11.26;100.00;100046.03;1736211;80;21285;-73
2021/05/22 01:25:39;;;;;;;2.87;1.87;;;;;;;11.31;100.00;100050.16;1769266;80;21001;-74
2021/05/22 01:28:10;;;;;;;2.93;1.50;;;;;;;11.35;100.00;100000.50;1772461;80;21300;-74
2021/05/22 01:30:37;;;;;;;3.52;1.62;;;;;;;11.35;100.00;99993.47;1769722;79;21104;-73
2021/05/22 01:33:07;;;;;;;2.60;1.67;;;;;;;11.36;100.00;99998.19;1770147;79;21614;-74
2021/05/22 01:35:33;;;;;;;2.20;1.40;;;;;;;11.36;100.00;99998.19;1767649;79;21299;-72
2021/05/22 01:38:00;;;;;;;2.87;1.67;;;;;;;11.38;100.00;99994.39;1774254;80;21314;-74
2021/05/22 01:40:27;;;;;;;2.07;1.40;;;;;;;11.39;100.00;99998.61;1764929;80;21406;-64
2021/05/22 01:42:54;;;;;;;4.30;1.60;;;;;;;11.38;100.00;100018.39;1772564;80;21475;-63
2021/05/22 01:45:26;;;;;;;1.90;1.00;;;;;;;11.38;100.00;100038.77;1770046;80;21284;-65
2021/05/22 01:47:52;;;;;;;2.22;1.60;;;;;;;11.41;100.00;100024.03;1772675;79;21317;-65
2021/05/22 01:50:20;;;;;;;4.67;1.47;;;;;;;11.46;100.00;100018.22;1768281;79;21056;-59
2021/05/22 01:52:54;;;;;;;2.63;1.40;;;;;;;11.50;100.00;100024.66;1773889;79;22831;-62
2021/05/22 01:55:21;;;;;;;3.57;1.30;;;;;;;11.63;100.00;100017.37;1769293;79;21389;-64
2021/05/22 01:57:49;;;;;;;2.63;1.27;;;;;;;11.63;100.00;100017.37;1741398;80;21494;-64
2021/05/22 02:00:16;;;;;;;2.30;1.30;;;;;;;11.71;100.00;100031.58;1764618;79;21896;-61
2021/05/22 02:03:05;;;;;;;2.33;1.47;;;;;;;11.83;100.00;100037.88;1768455;80;21488;-64
2021/05/22 02:05:31;;;;;;;2.60;1.17;;;;;;;11.90;100.00;100015.20;1758858;80;21453;-64
2021/05/22 02:07:58;;;;;;;2.43;1.50;;;;;;;12.15;100.00;99972.81;1773790;79;21664;-65
2021/05/22 02:10:25;;;;;;;2.40;1.37;;;;;;;12.15;100.00;99972.81;1770853;79;21609;-59
2021/05/22 02:12:55;;;;;;;2.73;1.60;;;;;;;12.26;100.00;99991.82;1773666;79;21557;-64
2021/05/22 02:15:23;;;;;;;1.97;1.10;;;;;;;12.34;100.00;100009.91;1771075;79;22242;-64
2021/05/22 02:17:52;;;;;;;3.57;1.60;;;;;;;12.38;100.00;100015.04;1772843;79;21747;-60
2021/05/22 02:20:21;;;;;;;3.93;1.70;;;;;;;12.41;100.00;100002.88;1771637;79;22333;-64
2021/05/22 02:22:48;;;;;;;4.57;1.50;;;;;;;12.43;100.00;99994.86;1773120;79;21591;-64
2021/05/22 02:25:14;;;;;;;6.83;1.73;;;;;;;12.45;100.00;99998.06;1773071;79;21771;-64
2021/05/22 02:27:41;;;;;;;5.57;1.53;;;;;;;12.55;100.00;100017.28;1742870;79;21686;-67
2021/05/22 02:30:11;;;;;;;4.43;1.63;;;;;;;12.84;100.00;100026.02;1773142;79;21657;-64
2021/05/22 02:32:39;;;;;;;2.90;1.70;;;;;;;13.25;100.00;100017.08;1764625;79;21712;-64
2021/05/22 02:35:08;;;;;;;3.30;1.90;;;;;;;13.65;100.00;100018.76;1773264;79;21642;-66
2021/05/22 02:37:35;;;;;;;2.97;1.50;;;;;;;13.84;100.00;100031.75;1738962;79;21676;-64
2021/05/22 02:40:12;;;;;;;2.73;1.50;;;;;;;13.81;100.00;100057.05;1774142;79;22280;-65
2021/05/22 02:42:38;;;;;;;2.77;1.60;;;;;;;13.77;100.00;100061.11;1770165;79;20954;-60
2021/05/22 02:45:07;;;;;;;4.37;1.87;;;;;;;13.86;100.00;100048.08;1773791;79;22096;-66
2021/05/22 02:47:34;;;;;;;3.87;1.77;;;;;;;14.09;100.00;100054.10;1769163;79;21025;-65
2021/05/22 02:50:07;;;;;;;4.83;2.00;;;;;;;14.22;100.00;100042.72;1744592;80;21103;-65
2021/05/22 02:52:35;;;;;;;3.60;1.73;;;;;;;14.21;100.00;100039.81;1771025;79;21569;-65
2021/05/22 02:55:04;;;;;;;3.57;1.80;;;;;;;14.44;100.00;100027.44;1743318;80;21000;-60
2021/05/22 02:57:33;;;;;;;3.07;1.80;;;;;;;14.88;100.00;100023.55;1772195;79;21048;-62
2021/05/22 03:00:01;;;;;;;3.70;1.53;;;;;;;15.36;100.00;100011.03;1772224;79;22563;-65
2021/05/22 03:02:27;;;;;;;2.57;1.47;;;;;;;15.88;100.00;100015.36;1755265;79;21069;-65
2021/05/22 03:04:54;;;;;;;2.50;1.50;;;;;;;16.39;100.00;100022.67;1757810;80;21573;-65
2021/05/22 03:07:21;;;;;;;2.60;1.50;;;;;;;16.95;100.00;100017.92;1757412;80;21048;-63
2021/05/22 03:09:49;;;;;;;3.23;1.57;;;;;;;17.62;100.00;100029.30;1757057;80;21209;-63
2021/05/22 03:12:24;;;;;;;5.77;1.63;;;;;;;18.18;100.00;100042.17;1758436;80;20981;-65
2021/05/22 03:14:52;;;;;;;3.17;1.33;;;;;;;18.63;100.00;100047.39;1758395;80;21017;-60
2021/05/22 03:17:19;;;;;;;2.00;1.30;;;;;;;18.96;100.00;100054.52;1750571;80;20998;-64
2021/05/22 03:19:46;;;;;;;2.50;1.30;;;;;;;19.30;100.00;100066.85;1759350;80;21476;-63
2021/05/22 03:22:12;;;;;;;1.70;1.00;;;;;;;19.69;100.00;100064.96;1754583;80;22542;-66
2021/05/22 03:24:39;;;;;;;3.37;1.30;;;;;;;20.04;100.00;100075.14;1757895;80;20894;-65
2021/05/22 03:27:27;;;;;;;1.40;0.80;;;;;;;20.37;100.00;100089.98;1758694;80;21049;-62
2021/05/22 03:29:54;;;;;;;1.70;1.00;;;;;;;20.81;100.00;100111.02;1770838;79;21039;-64
2021/05/22 03:32:20;;;;;;;2.20;1.10;;;;;;;21.43;100.00;100120.16;1761261;79;21594;-64
2021/05/22 03:34:47;;;;;;;1.60;0.97;;;;;;;21.77;100.00;100120.57;1776435;79;21080;-65
2021/05/22 03:37:13;;;;;;;1.97;1.10;;;;;;;22.18;100.00;100121.25;1761047;79;20948;-62
2021/05/22 03:39:40;;;;;;;1.90;1.23;;;;;;;22.51;96.37;100106.69;1770687;79;21095;-66
2021/05/22 03:42:08;;;;;;;1.97;0.90;;;;;;;22.76;90.41;100112.50;1759919;79;21031;-64
2021/05/22 03:44:34;;;;;;;3.83;0.90;;;;;;;22.76;86.31;100115.16;1771323;79;20935;-64
2021/05/22 03:47:01;;;;;;;1.83;1.00;;;;;;;22.39;82.56;100116.24;1759185;79;21075;-65
2021/05/22 03:49:28;;;;;;;2.73;0.90;;;;;;;21.35;89.13;100093.61;1761436;79;21040;-67
2021/05/22 03:51:56;;;;;;;1.50;0.70;;;;;;;20.19;100.00;100092.98;1759118;79;21085;-68
2021/05/22 03:54:22;;;;;;;1.80;1.30;;;;;;;19.20;100.00;100100.02;1767373;79;21004;-67
2021/05/22 03:56:49;;;;;;;3.17;1.10;;;;;;;18.42;100.00;100104.87;1771513;79;21091;-65
2021/05/22 03:59:16;;;;;;;1.77;0.93;;;;;;;18.12;100.00;100105.14;1757502;79;21068;-65
2021/05/22 04:01:43;;;;;;;2.30;1.00;;;;;;;18.34;100.00;100108.70;1730064;80;22499;-66
2021/05/22 04:04:10;;;;;;;3.57;1.03;;;;;;;18.76;100.00;100115.49;1764920;79;21102;-66
2021/05/22 04:06:36;;;;;;;4.70;1.27;;;;;;;18.89;100.00;100118.59;1770572;79;21097;-65
2021/05/22 04:09:05;;;;;;;4.37;0.80;;;;;;;18.66;100.00;100137.20;1769294;79;21508;-59
2021/05/22 04:11:31;;;;;;;2.73;1.10;;;;;;;18.30;100.00;100146.36;1770862;79;21015;-62
2021/05/22 04:13:58;;;;;;;3.00;1.00;;;;;;;18.09;100.00;100125.39;1767617;79;22602;-64
2021/05/22 04:16:24;;;;;;;2.83;0.80;;;;;;;18.18;100.00;100129.23;1773007;79;20876;-64
2021/05/22 04:18:51;;;;;;;2.07;0.73;;;;;;;18.08;100.00;100123.27;1777303;79;21608;-64
2021/05/22 04:21:18;;;;;;;1.73;1.10;;;;;;;17.67;100.00;100143.53;1769446;79;21646;-63
2021/05/22 04:23:45;;;;;;;1.93;0.80;;;;;;;17.30;100.00;100165.39;1766653;79;20977;-63
2021/05/22 04:26:11;;;;;;;2.37;0.80;;;;;;;17.12;100.00;100152.32;1774384;79;21707;-63
2021/05/22 04:28:38;;;;;;;2.03;0.57;;;;;;;17.54;100.00;100140.33;1793682;78;21020;-68
2021/05/22 04:31:05;;;;;;;1.20;0.67;;;;;;;18.07;100.00;100128.77;1766040;79;21548;-66
2021/05/22 04:33:32;;;;;;;3.47;1.17;;;;;;;18.12;100.00;100116.48;1773477;79;20992;-59
2021/05/22 04:35:58;;;;;;;3.43;0.90;;;;;;;17.83;100.00;100099.84;1772450;79;22037;-64
2021/05/22 04:38:26;;;;;;;2.43;0.83;;;;;;;17.41;100.00;100102.66;1771271;79;21087;-64
2021/05/22 04:40:53;;;;;;;2.10;0.90;;;;;;;17.11;100.00;100115.97;1776273;78;21028;-64
2021/05/22 04:43:19;;;;;;;2.47;1.00;;;;;;;16.88;100.00;100140.97;1769726;79;20977;-65
2021/05/22 04:45:46;;;;;;;2.70;0.80;;;;;;;16.70;100.00;100139.98;1759477;79;20961;-59
2021/05/22 04:48:13;;;;;;;2.03;0.70;;;;;;;16.56;100.00;100135.17;1763580;79;21089;-64
2021/05/22 04:50:39;;;;;;;1.97;0.70;;;;;;;16.46;100.00;100171.22;1767331;79;21002;-64
2021/05/22 04:53:05;;;;;;;2.67;1.10;;;;;;;16.39;100.00;100185.78;1771415;79;20948;-62
2021/05/22 04:55:32;;;;;;;2.73;1.00;;;;;;;16.34;100.00;100167.75;1757622;79;21028;-63
2021/05/22 04:57:59;;;;;;;3.97;1.23;;;;;;;16.23;100.00;100145.12;1755981;79;21028;-60
2021/05/22 05:00:26;;;;;;;4.60;0.80;;;;;;;16.07;100.00;100158.89;1743174;79;22171;-61
2021/05/22 05:02:54;;;;;;;3.33;0.83;;;;;;;15.97;100.00;100185.69;1746949;79;21876;-64
2021/05/22 05:05:21;;;;;;;2.17;0.60;;;;;;;16.00;100.00;100191.03;1749559;79;21545;-63
2021/05/22 05:07:47;;;;;;;1.30;0.57;;;;;;;16.25;100.00;100177.76;1767331;79;21704;-65
2021/05/22 05:10:15;;;;;;;1.90;0.67;;;;;;;16.74;100.00;100166.20;1746854;79;21067;-65
2021/05/22 05:12:41;;;;;;;1.50;0.60;;;;;;;17.12;100.00;100165.48;1737177;81;21094;-67
2021/05/22 05:15:10;;;;;;;1.93;0.90;;;;;;;17.27;100.00;100177.70;1742603;79;21054;-67
2021/05/22 05:17:37;;;;;;;2.77;0.87;;;;;;;17.16;100.00;100178.48;1751653;79;21044;-64
2021/05/22 05:20:08;;;;;;;1.87;0.73;;;;;;;16.85;100.00;100188.30;1752885;79;21047;-65
2021/05/22 05:22:35;;;;;;;1.57;0.80;;;;;;;16.59;100.00;100206.55;1757675;79;21190;-65
2021/05/22 05:25:01;;;;;;;1.63;0.60;;;;;;;16.38;100.00;100212.31;1723788;81;21162;-64
2021/05/22 05:27:28;;;;;;;3.43;0.60;;;;;;;16.23;100.00;100208.76;1776687;79;21031;-65
2021/05/22 05:29:55;;;;;;;1.30;0.70;;;;;;;16.17;100.00;100211.73;1792284;78;21030;-63
2021/05/22 05:32:22;;;;;;;1.40;0.50;;;;;;;16.23;100.00;100217.45;1808555;77;21095;-60
2021/05/22 05:34:50;;;;;;;2.07;0.70;;;;;;;16.46;100.00;100202.80;1803123;79;21554;-63
2021/05/22 05:37:18;;;;;;;5.47;0.57;;;;;;;16.87;100.00;100192.03;1793021;78;21036;-64
2021/05/22 05:39:44;;;;;;;1.20;0.40;;;;;;;17.32;100.00;100185.73;1806894;78;20945;-64
2021/05/22 05:42:11;;;;;;;1.90;0.60;;;;;;;17.45;100.00;100172.83;1771690;78;21539;-62
2021/05/22 05:44:38;;;;;;;1.93;0.50;;;;;;;17.43;100.00;100167.80;1749287;79;20981;-65
2021/05/22 05:47:06;;;;;;;2.00;0.70;;;;;;;17.47;100.00;100181.33;1783346;77;21557;-63
2021/05/22 05:49:33;;;;;;;1.43;0.50;;;;;;;17.50;100.00;100194.02;1777186;79;21139;-66
2021/05/22 05:51:59;;;;;;;2.67;0.70;;;;;;;17.40;100.00;100199.08;1788345;79;20929;-66
2021/05/22 05:54:26;;;;;;;2.63;0.60;;;;;;;17.19;100.00;100199.11;1783617;78;21043;-65
2021/05/22 05:56:53;;;;;;;4.50;0.80;;;;;;;17.00;100.00;100206.30;1787179;78;21090;-68
2021/05/22 05:59:20;;;;;;;3.87;1.10;;;;;;;16.82;100.00;100235.33;1807940;78;20928;-67
2021/05/22 06:01:47;;;;;;;4.07;0.67;;;;;;;16.80;100.00;100257.14;1777750;78;21052;-66
2021/05/22 06:04:13;;;;;;;1.33;0.50;;;;;;;16.75;100.00;100253.35;1781096;78;21103;-67
2021/05/22 06:06:40;;;;;;;3.03;0.70;;;;;;;16.70;100.00;100243.95;1774006;78;21099;-67
2021/05/22 06:09:06;;;;;;;1.67;0.80;;;;;;;16.59;100.00;100231.55;1778758;78;21158;-66
2021/05/22 06:11:35;;;;;;;3.50;1.00;;;;;;;16.47;100.00;100241.23;1779697;78;21016;-65
2021/05/22 06:14:04;;;;;;;4.40;0.70;;;;;;;16.36;100.00;100235.40;1784979;78;21077;-66
2021/05/22 06:16:33;;;;;;;1.00;0.47;;;;;;;16.32;100.00;100235.55;1778859;78;22477;-66
2021/05/22 06:18:58;;;;;;;1.57;0.60;;;;;;;16.33;100.00;100234.03;1800671;78;21019;-66
2021/05/22 06:21:25;;;;;;;1.40;0.60;;;;;;;16.54;100.00;100230.11;1793089;78;22113;-66
2021/05/22 06:23:52;;;;;;;1.10;0.60;;;;;;;17.06;100.00;100221.20;1793619;78;20956;-64
2021/05/22 06:26:19;;;;;;;1.67;0.63;;;;;;;17.86;100.00;100233.06;1798445;77;22473;-64
2021/05/22 06:28:46;;;;;;;3.70;0.63;;;;;;;18.68;100.00;100228.35;1785498;78;21261;-64
2021/05/22 06:31:14;;;;;;;1.73;0.53;;;;;;;19.64;100.00;100216.96;1782232;78;21462;-64
2021/05/22 06:33:40;;;;;;;2.40;0.47;;;;;;;20.56;100.00;100220.72;1773351;78;21111;-63
2021/05/22 06:36:08;;;;;;;1.20;0.60;;;;;;;21.21;100.00;100228.17;1751690;80;21035;-64
2021/05/22 06:38:35;;;;;;;2.10;0.60;;;;;;;21.76;100.00;100228.30;1812533;77;21683;-64
2021/05/22 06:41:02;;;;;;;2.67;0.57;;;;;;;22.20;100.00;100210.20;1812781;77;21000;-62
2021/05/22 06:43:29;;;;;;;1.00;0.50;;;;;;;22.76;100.00;100203.64;1828873;77;21640;-63
2021/05/22 06:46:05;;;;;;;4.50;3.03;;;;;;;23.17;83.10;100196.23;1805509;77;21064;-60
2021/05/22 06:48:26;;;;;;;34.97;19.80;;;;;;;23.22;75.31;100227.63;1785552;78;21656;-64
2021/05/22 06:50:53;;;;;;;4.97;2.57;;;;;;;23.16;84.36;100239.31;1777935;78;22115;-65
2021/05/22 06:53:20;;;;;;;2.93;0.90;;;;;;;23.50;76.30;100242.73;1786923;79;20953;-64
2021/05/22 06:55:48;;;;;;;2.77;0.67;;;;;;;23.94;76.89;100235.45;1787911;79;22491;-64
2021/05/22 06:58:15;;;;;;;1.70;0.80;;;;;;;24.32;68.91;100229.97;1786232;79;20961;-65
2021/05/22 07:00:41;;;;;;;2.63;1.00;;;;;;;24.44;61.90;100225.12;1785654;78;21063;-66
2021/05/22 07:03:09;;;;;;;4.37;1.07;;;;;;;24.29;61.91;100235.84;1785840;78;22238;-63
2021/05/22 07:05:35;;;;;;;2.40;1.13;;;;;;;24.08;65.31;100237.00;1785835;78;22345;-66
2021/05/22 07:08:02;;;;;;;3.17;0.70;;;;;;;23.87;64.95;100238.95;1789421;79;21051;-65
2021/05/22 07:10:30;;;;;;;2.23;1.30;;;;;;;23.80;65.18;100239.23;1780529;78;21028;-64
2021/05/22 07:12:57;;;;;;;1.77;0.60;;;;;;;23.93;63.53;100245.84;1777877;79;22076;-65
2021/05/22 07:15:25;;;;;;;2.33;0.80;;;;;;;24.06;63.94;100247.94;1784779;78;21118;-66
2021/05/22 07:17:52;;;;;;;2.83;0.90;;;;;;;24.24;61.77;100239.84;1766157;80;21042;-65
2021/05/22 07:20:19;;;;;;;1.43;0.63;;;;;;;24.45;61.84;100222.72;1819226;77;22459;-62
2021/05/22 07:22:47;;;;;;;3.10;0.80;;;;;;;24.59;61.46;100214.91;1812350;78;22060;-66
2021/05/22 07:25:16;;;;;;;3.97;0.97;;;;;;;24.65;60.53;100218.32;1821549;77;20945;-64
2021/05/22 07:27:43;;;;;;;1.20;0.70;;;;;;;24.42;60.04;100224.59;1808049;78;21075;-64
2021/05/22 07:30:11;;;;;;;9.47;1.77;;;;;;;24.36;58.97;100219.02;1800263;78;20974;-62
2021/05/22 07:32:38;;;;;;;3.80;0.93;;;;;;;24.45;60.02;100216.05;1799541;78;20949;-65
2021/05/22 07:35:06;;;;;;;2.63;1.00;;;;;;;24.65;57.60;100205.00;1773880;80;20996;-65
2021/05/22 07:37:34;;;;;;;1.67;0.70;;;;;;;24.77;56.93;100189.44;1751294;80;20845;-67
2021/05/22 07:40:01;;;;;;;2.27;1.53;;;;;;;24.96;55.63;100179.70;1804040;77;21037;-64
2021/05/22 07:42:28;;;;;;;3.15;1.10;;;;;;;24.89;58.09;100187.22;1766174;79;21580;-66
2021/05/22 07:44:58;;;;;;;1.72;0.88;;;;;;;24.92;59.40;100178.64;1786067;79;21222;-67
2021/05/22 07:47:25;;;;;;;2.67;0.88;;;;;;;25.15;55.35;100181.67;1757845;79;21016;-66
2021/05/22 07:49:52;;;;;;;2.03;0.80;;;;;;;25.11;53.47;100188.64;1774228;79;21600;-69
2021/05/22 07:52:19;;;;;;;2.17;0.80;;;;;;;25.02;54.62;100183.64;1802864;77;22429;-67
2021/05/22 07:54:45;;;;;;;2.80;0.87;;;;;;;24.95;59.30;100173.30;1782190;78;21980;-68
2021/05/22 07:57:12;;;;;;;4.85;0.82;;;;;;;24.90;55.00;100152.81;1767215;79;21061;-69
2021/05/22 07:59:41;;;;;;;2.63;0.67;;;;;;;24.60;58.01;100153.08;1766459;79;20976;-67
2021/05/22 08:02:09;;;;;;;2.30;0.87;;;;;;;24.40;58.09;100162.81;1754769;80;20965;-66
2021/05/22 08:04:35;;;;;;;1.83;0.83;;;;;;;24.45;63.84;100164.09;1799224;78;20941;-66
2021/05/22 08:07:03;;;;;;;2.43;0.90;;;;;;;24.67;67.88;100166.88;1806636;78;21013;-63
2021/05/22 08:09:30;;;;;;;1.90;0.80;;;;;;;24.89;61.75;100162.41;1768397;80;21629;-66
2021/05/22 08:11:56;;;;;;;3.20;0.70;;;;;;;24.73;62.29;100152.41;1765658;80;20961;-67
2021/05/22 08:14:24;;;;;;;3.40;0.83;;;;;;;24.72;61.09;100132.97;1771066;79;21000;-64
2021/05/22 08:16:50;;;;;;;0.93;0.57;;;;;;;24.79;62.09;100142.52;1756056;79;22238;-66
2021/05/22 08:19:17;;;;;;;1.83;0.70;;;;;;;24.78;56.58;100146.27;1765154;79;22489;-66
2021/05/22 08:21:45;;;;;;;2.63;0.60;;;;;;;24.46;58.11;100151.02;1753016;79;21061;-61
2021/05/22 08:24:13;;;;;;;3.77;0.70;;;;;;;24.19;63.58;100162.64;1757124;79;20992;-66
2021/05/22 08:26:42;;;;;;;2.07;0.97;;;;;;;24.34;70.09;100165.75;1774357;79;20952;-61
2021/05/22 08:29:10;;;;;;;4.27;0.80;;;;;;;24.66;65.35;100166.59;1759465;79;21773;-66
2021/05/22 08:31:37;;;;;;;0.90;0.60;;;;;;;24.91;61.30;100162.39;1725470;81;21044;-65
2021/05/22 08:34:04;;;;;;;2.37;0.70;;;;;;;25.17;61.93;100179.53;1740112;79;20897;-66
2021/05/22 08:36:32;;;;;;;1.27;0.80;;;;;;;25.43;58.96;100172.85;1728739;81;21104;-65
2021/05/22 08:39:00;;;;;;;0.90;0.53;;;;;;;25.55;57.69;100163.11;1765937;79;21038;-67
2021/05/22 08:41:27;;;;;;;2.83;0.73;;;;;;;25.70;58.34;100158.13;1721935;81;21746;-66
2021/05/22 08:43:54;;;;;;;1.10;0.70;;;;;;;25.77;58.02;100167.92;1757536;79;21087;-63
2021/05/22 08:46:22;;;;;;;4.43;0.90;;;;;;;25.83;56.73;100173.47;1756503;79;21391;-69
2021/05/22 08:48:49;;;;;;;2.00;0.83;;;;;;;25.67;55.42;100163.49;1757938;79;21667;-64
2021/05/22 08:51:20;;;;;;;2.27;0.60;;;;;;;25.72;55.26;100170.13;1744405;79;21024;-66
2021/05/22 08:53:45;;;;;;;1.60;0.70;;;;;;;25.90;53.26;100171.24;1747518;79;21031;-66
2021/05/22 08:56:12;;;;;;;1.27;0.80;;;;;;;25.96;55.06;100176.78;1756072;79;21020;-61
2021/05/22 08:58:39;;;;;;;1.97;0.70;;;;;;;26.12;54.07;100174.70;1758158;80;21133;-65
2021/05/22 09:01:08;;;;;;;1.33;0.60;;;;;;;26.17;52.10;100172.48;1757310;79;21052;-65
2021/05/22 09:03:35;;;;;;;2.33;0.62;;;;;;;26.25;55.31;100177.17;1764872;79;22059;-64
2021/05/22 09:06:02;;;;;;;1.80;0.70;;;;;;;26.30;54.85;100185.69;1774064;80;20994;-60
2021/05/22 09:08:32;;;;;;;1.20;0.70;;;;;;;26.32;56.18;100179.49;1752299;80;21085;-64
2021/05/22 09:11:04;;;;;;;2.37;0.78;;;;;;;26.68;56.15;100178.45;1760785;80;21019;-64
2021/05/22 09:13:32;;;;;;;2.37;0.65;;;;;;;27.02;51.13;100172.79;1762102;80;21512;-63
2021/05/22 09:16:06;;;;;;;1.22;0.70;;;;;;;27.05;46.98;100183.42;1759796;80;21018;-63
2021/05/22 09:18:38;;;;;;;1.53;0.90;;;;;;;26.71;47.32;100184.55;1756783;80;21112;-64
2021/05/22 09:21:07;;;;;;;2.12;0.82;;;;;;;26.60;50.23;100187.14;1749428;80;20936;-65
2021/05/22 09:23:36;;;;;;;2.43;0.83;;;;;;;26.56;48.63;100186.13;1767148;80;21111;-63
2021/05/22 09:26:07;;;;;;;2.55;1.10;;;;;;;26.55;50.24;100185.31;1767699;80;21666;-64
2021/05/22 09:28:36;;;;;;;1.80;0.60;;;;;;;26.77;49.36;100186.59;1767730;79;21036;-66
2021/05/22 09:31:04;;;;;;;1.95;0.80;;;;;;;26.96;48.23;100175.84;1796435;77;21414;-66
2021/05/22 09:33:33;;;;;;;1.85;0.72;;;;;;;27.09;46.27;100174.54;1796389;78;22371;-61
2021/05/22 09:36:03;;;;;;;1.40;0.55;;;;;;;27.07;47.40;100172.69;1800104;77;21040;-67
2021/05/22 09:38:40;;;;;;;1.60;0.70;;;;;;;27.38;46.29;100170.81;1793349;78;21602;-67
2021/05/22 09:41:30;;;;;;;2.98;0.80;;;;;;;27.45;46.89;100173.10;1799370;77;21096;-61
2021/05/22 09:44:13;;;;;;;2.60;0.70;;;;;;;27.73;46.16;100155.94;1806796;77;21092;-68
2021/05/22 09:46:50;;;;;;;1.67;0.88;;;;;;;27.96;44.01;100160.02;1761268;79;21130;-61
2021/05/22 09:49:34;;;;;;;0.90;0.60;;;;;;;27.60;44.38;100162.09;1773279;78;21087;-68
2021/05/22 09:52:04;;;;;;;2.37;0.80;;;;;;;27.16;44.76;100160.78;1763864;80;21535;-66
2021/05/22 09:54:50;;;;;;;2.45;0.85;;;;;;;26.85;45.26;100155.16;1758416;79;22380;-63
2021/05/22 09:57:24;;;;;;;1.20;0.72;;;;;;;26.76;49.31;100156.38;1753756;79;21670;-67
2021/05/22 10:00:13;;;;;;;1.57;0.72;;;;;;;26.99;49.28;100161.88;1750270;80;21713;-67
2021/05/22 10:02:52;;;;;;;1.45;1.20;;;;;;;27.13;48.70;100158.17;1762772;80;21070;-68
2021/05/22 10:05:22;;;;;;;3.77;1.15;;;;;;;27.24;47.61;100156.11;1808805;77;21986;-68
2021/05/22 10:07:53;;;;;;;2.60;0.80;;;;;;;27.05;47.16;100157.49;1800097;77;21025;-61
2021/05/22 10:10:21;;;;;;;2.50;0.70;;;;;;;26.83;47.52;100152.78;1772540;80;21757;-66
2021/05/22 10:12:49;;;;;;;2.35;0.80;;;;;;;26.76;49.15;100156.38;1771948;78;21748;-61
2021/05/22 10:15:18;;;;;;;3.58;0.90;;;;;;;26.90;49.61;100151.86;1765475;80;21480;-66
2021/05/22 10:17:49;;;;;;;2.47;1.05;;;;;;;27.18;51.16;100145.23;1747117;80;20937;-70
2021/05/22 10:20:15;;;;;;;1.35;0.70;;;;;;;27.50;51.59;100160.95;1764140;78;20890;-68
2021/05/22 10:22:42;;;;;;;2.25;1.02;;;;;;;27.72;48.06;100173.08;1810224;77;21099;-60
2021/05/22 10:25:10;;;;;;;2.33;1.17;;;;;;;27.94;46.44;100174.28;1800081;78;21063;-67
2021/05/22 10:27:37;;;;;;;1.72;0.88;;;;;;;28.16;45.15;100174.33;1796867;78;21527;-66
2021/05/22 10:30:06;;;;;;;1.72;0.90;;;;;;;27.95;43.87;100173.97;1811457;77;20930;-62
2021/05/22 10:32:32;;;;;;;1.72;0.95;;;;;;;27.71;45.31;100170.16;1797267;77;21012;-62
2021/05/22 10:35:17;;;;;;;1.32;0.93;;;;;;;27.51;45.53;100169.25;1816320;77;21092;-66
2021/05/22 10:37:49;;;;;;;3.35;1.10;;;;;;;27.11;46.18;100166.23;1802490;77;20921;-62
2021/05/22 10:40:18;;;;;;;2.98;1.00;;;;;;;26.82;48.67;100173.13;1776598;79;22173;-61
2021/05/22 10:42:54;;;;;;;2.05;1.05;;;;;;;26.93;48.20;100178.03;1773339;79;21011;-65
2021/05/22 10:45:39;;;;;;;3.37;0.98;;;;;;;27.20;49.62;100179.20;1768763;79;21047;-61
2021/05/22 10:48:21;;;;;;;1.40;0.78;;;;;;;27.30;49.00;100185.68;1812488;77;21057;-61
2021/05/22 10:50:48;;;;;;;3.22;1.12;;;;;;;27.18;48.66;100178.69;1803008;78;20921;-63
2021/05/22 10:53:30;;;;;;;2.72;1.02;;;;;;;27.09;50.72;100191.93;1817064;77;20976;-67
2021/05/22 10:56:15;;;;;;;2.55;1.10;;;;;;;27.09;47.90;100200.50;1792933;77;21507;-63
2021/05/22 10:59:07;;;;;;;2.70;1.10;;;;;;;26.90;49.10;100191.20;1799140;78;21084;-68
2021/05/22 11:01:36;;;;;;;2.22;1.07;;;;;;;26.68;51.22;100193.95;1795227;78;20917;-69
2021/05/22 11:04:15;;;;;;;1.82;0.90;;;;;;;26.77;49.43;100203.42;1805891;77;21103;-69
2021/05/22 11:06:50;;;;;;;1.57;1.00;;;;;;;26.70;50.29;100205.67;1817347;77;20977;-70
2021/05/22 11:09:35;;;;;;;2.27;1.17;;;;;;;26.73;51.04;100197.63;1771353;79;20866;-64
2021/05/22 11:12:20;;;;;;;1.72;1.02;;;;;;;26.84;49.24;100207.86;1782558;79;21518;-69
2021/05/22 11:14:53;;;;;;;2.13;0.97;;;;;;;26.86;51.68;100206.25;1763376;80;21071;-65
2021/05/22 11:17:26;;;;;;;5.10;1.30;;;;;;;27.04;50.84;100203.25;1746210;81;21052;-71
2021/05/22 11:20:07;;;;;;;2.72;1.00;;;;;;;27.31;47.68;100197.17;1792270;77;20956;-70
2021/05/22 11:22:48;;;;;;;1.13;0.73;;;;;;;27.28;45.47;100200.47;1797955;79;20925;-69
2021/05/22 11:25:18;;;;;;;1.90;1.10;;;;;;;27.03;46.28;100208.36;1795469;77;20957;-69
2021/05/22 11:30:22;;;;;;;1.70;1.10;;;;;;;26.41;47.88;100209.30;1763273;80;20901;-70
2021/05/22 11:32:57;;;;;;;1.93;0.97;;;;;;;26.08;50.23;100206.28;1793344;78;22492;-68